Time;durP1;ratioP1;P1;durP2;ratioP2;P2;SDS_P1;SDS_P2;PMS_P1;PMS_P2;Temp;Humidity;BMP_temperature;BMP_pressure;BME280_temperature;BME280_humidity;BME280_pressure;Samples;Min_cycle;Max_cycle;Signal;HPM_P1;HPM_P2
2022/11/16 00:01:52;;;;;;;4.63;2.67;;;10.50;99.90;;;;;;5137664;27;20039;-68
2022/11/16 00:04:18;;;;;;;4.72;2.63;;;10.40;99.90;;;;;;5137710;27;20394;-68
2022/11/16 00:06:45;;;;;;;3.95;2.75;;;10.40;99.90;;;;;;5137299;27;20054;-68
2022/11/16 00:09:25;;;;;;;4.78;2.83;;;10.50;99.90;;;;;;5137603;27;20065;-68
2022/11/16 00:12:11;;;;;;;3.30;2.55;;;10.50;99.90;;;;;;5137285;27;20075;-68
2022/11/16 00:14:37;;;;;;;4.80;2.85;;;10.40;99.90;;;;;;5137422;27;20038;-68
2022/11/16 00:17:03;;;;;;;4.28;2.90;;;10.50;99.90;;;;;;5137261;27;20371;-68
2022/11/16 00:19:29;;;;;;;6.88;3.20;;;10.50;99.90;;;;;;5118706;27;20091;-68
2022/11/16 00:21:55;;;;;;;4.25;2.83;;;10.50;99.90;;;;;;5118704;27;20051;-68
2022/11/16 00:24:22;;;;;;;4.88;3.20;;;10.50;99.90;;;;;;5137057;27;20043;-68
2022/11/16 00:26:48;;;;;;;3.92;2.42;;;10.40;99.90;;;;;;5118920;27;20180;-68
2022/11/16 00:29:20;;;;;;;5.65;3.22;;;10.40;99.90;;;;;;5118580;27;20516;-68
2022/11/16 00:31:46;;;;;;;3.83;2.65;;;10.50;99.90;;;;;;5118522;27;20035;-67
2022/11/16 00:34:12;;;;;;;4.82;2.95;;;10.50;99.90;;;;;;5137171;27;20035;-68
2022/11/16 00:36:38;;;;;;;7.32;2.70;;;10.50;99.90;;;;;;5118384;27;20389;-68
2022/11/16 00:39:04;;;;;;;4.07;2.60;;;10.50;99.90;;;;;;5136965;27;20058;-68
2022/11/16 00:41:30;;;;;;;4.32;2.95;;;10.50;99.90;;;;;;5136098;27;20118;-68
2022/11/16 00:43:55;;;;;;;4.15;2.67;;;10.50;99.90;;;;;;5136667;27;20035;-68
2022/11/16 00:46:21;;;;;;;4.30;3.20;;;10.50;99.90;;;;;;5118339;27;20497;-68
2022/11/16 00:48:47;;;;;;;4.03;3.03;;;10.50;99.90;;;;;;5136512;27;20031;-68
2022/11/16 00:51:13;;;;;;;6.13;3.40;;;10.50;99.90;;;;;;5136823;27;20043;-68
2022/11/16 00:53:38;;;;;;;5.13;3.22;;;10.40;99.90;;;;;;5136690;27;20062;-68
2022/11/16 00:56:04;;;;;;;4.57;2.90;;;10.50;99.90;;;;;;5136694;27;20124;-68
2022/11/16 00:58:30;;;;;;;5.15;2.78;;;10.40;99.90;;;;;;5136642;27;20039;-68
2022/11/16 01:00:56;;;;;;;6.60;3.05;;;10.70;99.90;;;;;;5136569;27;20439;-68
2022/11/16 01:03:21;;;;;;;3.60;2.63;;;10.60;99.90;;;;;;5136570;27;20461;-68
2022/11/16 01:05:47;;;;;;;3.92;2.63;;;10.50;99.90;;;;;;5136141;27;20051;-68
2022/11/16 01:08:13;;;;;;;4.40;3.10;;;10.50;99.90;;;;;;5136481;27;20046;-68
2022/11/16 01:10:40;;;;;;;6.45;2.95;;;10.40;99.90;;;;;;5117740;27;20071;-67
2022/11/16 01:13:05;;;;;;;6.55;3.03;;;10.40;99.90;;;;;;5118139;27;20039;-68
2022/11/16 01:15:31;;;;;;;9.07;3.40;;;10.50;99.90;;;;;;5136342;27;20035;-67
2022/11/16 01:17:57;;;;;;;3.67;2.58;;;10.50;99.90;;;;;;5136557;27;20074;-68
2022/11/16 01:20:25;;;;;;;7.90;2.67;;;10.50;99.90;;;;;;5135926;27;20043;-68
2022/11/16 01:22:52;;;;;;;4.40;2.88;;;10.50;99.90;;;;;;5136241;27;20042;-68
2022/11/16 01:25:18;;;;;;;5.82;2.60;;;10.50;99.90;;;;;;5100692;27;20109;-67
2022/11/16 01:27:44;;;;;;;3.35;2.50;;;10.50;99.90;;;;;;5136082;27;20046;-69
2022/11/16 01:30:12;;;;;;;3.90;1.90;;;10.50;99.90;;;;;;5135816;27;20452;-68
2022/11/16 01:32:38;;;;;;;3.83;2.88;;;10.50;99.90;;;;;;5135738;27;20043;-67
2022/11/16 01:35:04;;;;;;;5.68;2.97;;;10.60;99.90;;;;;;5135939;27;20045;-68
2022/11/16 01:37:30;;;;;;;5.32;3.20;;;10.50;99.90;;;;;;5135637;27;20172;-68
2022/11/16 01:39:56;;;;;;;3.33;2.25;;;10.60;99.90;;;;;;5135797;27;20543;-68
2022/11/16 01:42:27;;;;;;;4.00;2.35;;;10.50;99.90;;;;;;5135737;27;20122;-68
2022/11/16 01:44:57;;;;;;;4.10;2.25;;;10.50;99.90;;;;;;5135741;27;20039;-68
2022/11/16 01:47:22;;;;;;;4.93;2.78;;;10.60;99.90;;;;;;5117041;27;20043;-68
2022/11/16 01:49:53;;;;;;;3.67;2.60;;;10.60;99.90;;;;;;5116960;27;20112;-68
2022/11/16 01:52:23;;;;;;;3.22;2.50;;;10.60;99.90;;;;;;5135328;27;20043;-68
2022/11/16 01:54:52;;;;;;;3.08;2.33;;;10.60;99.90;;;;;;5134903;27;20452;-68
2022/11/16 01:57:26;;;;;;;3.60;2.30;;;10.60;99.90;;;;;;5135481;27;20047;-68
2022/11/16 01:59:56;;;;;;;4.28;2.85;;;10.60;99.90;;;;;;5135398;27;20039;-68
2022/11/16 02:02:22;;;;;;;4.70;2.70;;;10.60;99.90;;;;;;5135216;27;20090;-68
2022/11/16 02:04:51;;;;;;;2.85;2.03;;;10.60;99.90;;;;;;5135190;27;20038;-68
2022/11/16 02:09:52;;;;;;;4.15;2.33;;;10.60;99.90;;;;;;5135296;27;20113;-68
2022/11/16 02:10:44;;;;;;;3.08;2.20;;;10.60;99.90;;;;;;5135050;27;20046;-68
2022/11/16 02:13:28;;;;;;;4.03;2.63;;;10.60;99.90;;;;;;5099855;27;20562;-68
2022/11/16 02:16:15;;;;;;;6.43;2.58;;;10.60;99.90;;;;;;5116461;27;20068;-68
2022/11/16 02:18:57;;;;;;;2.97;1.85;;;10.60;99.90;;;;;;5134814;27;20039;-68
2022/11/16 02:21:47;;;;;;;3.78;2.45;;;10.60;99.90;;;;;;5135042;27;20053;-68
2022/11/16 02:24:31;;;;;;;3.53;2.33;;;10.60;99.90;;;;;;5116343;27;20039;-68
2022/11/16 02:27:35;;;;;;;3.38;2.45;;;10.60;99.90;;;;;;5116506;27;20099;-67
2022/11/16 02:30:02;;;;;;;6.30;2.65;;;10.60;99.90;;;;;;5134928;27;20096;-67
2022/11/16 02:32:56;;;;;;;4.57;2.78;;;10.60;99.90;;;;;;5134945;27;20050;-68
2022/11/16 02:35:35;;;;;;;3.63;2.63;;;10.60;99.90;;;;;;5098657;27;20107;-69
2022/11/16 02:38:08;;;;;;;6.57;2.60;;;10.60;99.90;;;;;;5134530;27;20091;-68
2022/11/16 02:40:36;;;;;;;3.03;2.20;;;10.50;99.90;;;;;;5134620;27;20050;-68
2022/11/16 02:43:11;;;;;;;6.85;2.63;;;10.60;99.90;;;;;;5134723;27;20482;-68
2022/11/16 02:45:44;;;;;;;3.55;2.15;;;10.60;99.90;;;;;;5134351;27;20034;-68
2022/11/16 02:48:15;;;;;;;6.80;2.80;;;10.60;99.90;;;;;;5134680;27;20042;-68
2022/11/16 02:50:42;;;;;;;4.85;2.28;;;10.60;99.90;;;;;;5134628;27;20078;-68
2022/11/16 02:53:08;;;;;;;3.67;2.67;;;10.60;99.90;;;;;;5134621;27;20047;-68
2022/11/16 02:55:35;;;;;;;4.72;2.13;;;10.60;99.90;;;;;;5134571;27;20051;-68
2022/11/16 02:58:04;;;;;;;3.92;2.38;;;10.60;99.90;;;;;;5115921;27;20047;-68
2022/11/16 03:01:02;;;;;;;5.38;2.50;;;10.50;99.90;;;;;;5134267;27;20054;-68
2022/11/16 03:03:35;;;;;;;4.03;2.22;;;10.60;99.90;;;;;;5134490;28;20043;-69
2022/11/16 03:06:23;;;;;;;3.28;2.30;;;10.60;99.90;;;;;;5115295;28;20092;-69
2022/11/16 03:09:13;;;;;;;4.47;2.53;;;10.50;99.90;;;;;;5132911;28;20124;-69
2022/11/16 03:11:59;;;;;;;3.25;2.30;;;10.50;99.90;;;;;;5116072;28;20055;-69
2022/11/16 03:14:33;;;;;;;4.20;2.33;;;10.50;99.90;;;;;;5134383;28;20126;-68
2022/11/16 03:17:01;;;;;;;3.22;2.10;;;10.50;99.90;;;;;;5134051;28;20036;-68
2022/11/16 03:19:44;;;;;;;3.00;2.33;;;10.50;99.90;;;;;;5098667;28;20050;-68
2022/11/16 03:22:29;;;;;;;6.03;2.90;;;10.50;99.90;;;;;;5115718;28;20036;-68
2022/11/16 03:24:54;;;;;;;3.22;2.17;;;10.70;99.90;;;;;;5115529;28;20047;-69
2022/11/16 03:27:29;;;;;;;3.85;2.42;;;10.50;99.90;;;;;;5115590;28;20122;-68
2022/11/16 03:30:20;;;;;;;3.75;2.45;;;10.80;99.90;;;;;;5115588;28;20042;-68
2022/11/16 03:32:57;;;;;;;3.35;2.33;;;10.50;99.90;;;;;;5133215;28;20124;-69
2022/11/16 03:35:54;;;;;;;5.53;2.38;;;10.50;99.90;;;;;;5134167;28;20095;-68
2022/11/16 03:38:22;;;;;;;3.58;1.95;;;10.40;99.90;;;;;;5134183;28;20519;-68
2022/11/16 03:40:49;;;;;;;3.60;2.60;;;10.50;99.90;;;;;;5133763;28;20040;-68
2022/11/16 03:43:17;;;;;;;4.40;2.65;;;10.40;99.90;;;;;;5133978;28;20070;-69
2022/11/16 03:45:45;;;;;;;5.93;2.47;;;10.40;99.90;;;;;;5134066;28;20521;-69
2022/11/16 03:48:12;;;;;;;4.40;2.65;;;10.60;99.90;;;;;;5133795;28;20038;-68
2022/11/16 03:50:39;;;;;;;6.25;2.58;;;10.40;99.90;;;;;;5115635;28;20087;-68
2022/11/16 03:53:05;;;;;;;4.32;2.92;;;10.50;99.90;;;;;;5133996;28;20495;-69
2022/11/16 03:55:30;;;;;;;4.53;2.80;;;10.40;99.90;;;;;;5134040;28;20039;-69
2022/11/16 03:57:56;;;;;;;3.35;2.70;;;10.40;99.90;;;;;;5133976;28;20034;-69
2022/11/16 04:00:22;;;;;;;6.50;3.10;;;10.40;99.90;;;;;;5133629;28;20046;-69
2022/11/16 04:02:47;;;;;;;4.30;2.95;;;10.40;99.90;;;;;;5133920;28;20114;-68
2022/11/16 04:25:01;;;;;;;4.57;3.22;;;10.30;99.90;;;;;;5053715;28;20048;-69
2022/11/16 04:30:12;;;;;;;4.68;3.00;;;10.30;99.90;;;;;;5136911;27;20011;-68
2022/11/16 04:37:47;;;;;;;4.65;3.10;;;10.40;99.90;;;;;;5136881;27;20080;-68
2022/11/16 04:38:20;;;;;;;8.38;3.70;;;10.30;99.90;;;;;;5136756;27;20050;-68
2022/11/16 04:40:46;;;;;;;7.65;3.75;;;10.30;99.90;;;;;;5136623;27;20039;-68
2022/11/16 04:43:12;;;;;;;5.07;3.42;;;10.30;99.90;;;;;;5136979;27;20046;-68
2022/11/16 04:48:22;;;;;;;4.80;3.33;;;10.30;99.90;;;;;;5118532;27;20512;-69
2022/11/16 04:50:48;;;;;;;5.93;4.05;;;10.30;99.90;;;;;;5136809;27;20047;-68
2022/11/16 04:53:14;;;;;;;5.68;3.45;;;10.20;99.90;;;;;;5117994;27;20051;-68
2022/11/16 04:55:40;;;;;;;6.07;3.53;;;10.30;99.90;;;;;;5136788;27;20043;-68
2022/11/16 04:58:05;;;;;;;6.72;4.05;;;10.30;99.90;;;;;;5118067;27;20530;-68
2022/11/16 05:00:31;;;;;;;4.97;3.25;;;10.40;99.90;;;;;;5118282;27;20046;-67
2022/11/16 05:02:57;;;;;;;6.45;4.40;;;10.40;99.90;;;;;;5136560;27;20027;-67
2022/11/16 05:05:22;;;;;;;6.63;3.65;;;10.20;99.90;;;;;;5136306;27;20118;-67
2022/11/16 05:07:48;;;;;;;4.85;3.50;;;10.20;99.90;;;;;;5136484;27;20091;-67
2022/11/16 05:10:14;;;;;;;7.22;4.20;;;10.20;99.90;;;;;;5136167;27;20050;-67
2022/11/16 05:12:40;;;;;;;5.53;3.67;;;10.20;99.90;;;;;;5117763;27;20035;-68
2022/11/16 05:15:07;;;;;;;5.75;3.90;;;10.20;99.90;;;;;;5136351;27;20031;-68
2022/11/16 05:17:33;;;;;;;8.52;4.07;;;10.20;99.90;;;;;;5135978;27;20099;-68
2022/11/16 05:22:43;;;;;;;6.57;4.25;;;10.20;99.90;;;;;;5135886;27;20047;-68
2022/11/16 05:25:10;;;;;;;6.70;4.28;;;10.20;99.90;;;;;;5117504;27;20047;-68
2022/11/16 05:27:36;;;;;;;8.02;4.50;;;10.20;99.90;;;;;;5117356;27;20043;-68
2022/11/16 05:30:04;;;;;;;6.40;3.67;;;10.20;99.90;;;;;;5136093;27;20050;-68
2022/11/16 05:32:30;;;;;;;7.70;4.47;;;10.20;99.90;;;;;;5117389;27;20039;-67
2022/11/16 05:34:55;;;;;;;8.75;4.60;;;10.40;99.90;;;;;;5135867;27;20164;-68
2022/11/16 05:37:25;;;;;;;7.00;4.30;;;10.20;99.90;;;;;;5135981;27;20450;-67
2022/11/16 05:39:50;;;;;;;5.57;3.60;;;10.20;99.90;;;;;;5135535;27;20047;-68
2022/11/16 05:42:16;;;;;;;5.40;3.80;;;10.20;99.90;;;;;;5135768;27;20040;-67
2022/11/16 05:44:42;;;;;;;6.72;3.67;;;10.20;99.90;;;;;;5117372;27;20501;-68
2022/11/16 05:47:07;;;;;;;6.88;4.28;;;10.20;99.90;;;;;;5116973;27;20038;-67
2022/11/16 05:49:33;;;;;;;4.72;3.42;;;10.20;99.90;;;;;;5135617;27;20042;-68
2022/11/16 05:51:59;;;;;;;6.97;4.40;;;10.50;99.90;;;;;;5117109;27;20077;-67
2022/11/16 05:54:25;;;;;;;6.53;3.85;;;10.20;99.90;;;;;;5135625;27;20050;-67
2022/11/16 05:56:51;;;;;;;6.53;4.07;;;10.20;99.90;;;;;;5135295;27;20039;-68
2022/11/16 05:59:19;;;;;;;6.63;4.05;;;10.20;99.90;;;;;;5135211;27;20046;-68
2022/11/16 06:01:45;;;;;;;6.72;4.45;;;10.20;99.90;;;;;;5135359;27;20043;-67
2022/11/16 06:04:12;;;;;;;8.93;4.32;;;10.20;99.90;;;;;;5135080;27;20046;-68
2022/11/16 06:06:38;;;;;;;7.20;4.28;;;10.20;99.90;;;;;;5134922;27;20043;-67
2022/11/16 06:09:05;;;;;;;10.20;4.65;;;10.20;99.90;;;;;;5135326;27;20039;-68
2022/11/16 06:11:31;;;;;;;5.50;3.28;;;10.70;99.90;;;;;;5100124;27;20041;-67
2022/11/16 06:13:57;;;;;;;6.60;3.83;;;10.20;99.90;;;;;;5135255;27;20375;-67
2022/11/16 06:16:22;;;;;;;8.77;4.65;;;10.20;99.90;;;;;;5135165;27;20137;-67
2022/11/16 06:18:48;;;;;;;5.45;3.70;;;10.40;99.90;;;;;;5116449;27;20053;-67
2022/11/16 06:21:16;;;;;;;7.85;4.07;;;10.20;99.90;;;;;;5135008;27;20501;-69
2022/11/16 06:23:41;;;;;;;7.20;4.22;;;10.20;99.90;;;;;;5116391;27;20386;-68
2022/11/16 06:26:08;;;;;;;5.30;4.10;;;10.20;99.90;;;;;;5134718;27;20031;-67
2022/11/16 06:28:34;;;;;;;5.72;3.72;;;10.20;99.90;;;;;;5134724;27;20039;-67
2022/11/16 06:30:59;;;;;;;4.38;3.25;;;10.20;99.90;;;;;;5135021;27;20088;-67
2022/11/16 06:33:25;;;;;;;6.22;3.88;;;10.30;99.90;;;;;;5134890;27;20031;-67
2022/11/16 06:35:51;;;;;;;4.47;3.50;;;10.30;99.90;;;;;;5116470;27;20459;-68
2022/11/16 06:38:17;;;;;;;5.82;3.72;;;10.30;99.90;;;;;;5134565;27;20043;-68
2022/11/16 06:40:51;;;;;;;6.25;4.05;;;10.30;99.90;;;;;;5133769;27;20084;-66
2022/11/16 06:43:17;;;;;;;5.18;3.63;;;10.30;99.90;;;;;;5116387;27;20438;-68
2022/11/16 06:45:42;;;;;;;6.07;3.83;;;10.30;99.90;;;;;;5134700;27;20070;-68
2022/11/16 06:48:08;;;;;;;6.72;3.65;;;10.30;99.90;;;;;;5134768;27;20091;-68
2022/11/16 06:50:34;;;;;;;5.93;3.47;;;10.80;99.90;;;;;;5134654;27;20482;-67
2022/11/16 06:52:59;;;;;;;5.47;3.38;;;10.30;99.90;;;;;;5134623;27;20405;-66
2022/11/16 06:55:28;;;;;;;7.70;3.75;;;10.30;99.90;;;;;;5134703;27;20386;-66
2022/11/16 06:57:54;;;;;;;5.32;3.55;;;10.30;99.90;;;;;;5134595;27;20039;-67
2022/11/16 07:00:20;;;;;;;4.78;3.55;;;10.30;99.90;;;;;;5134177;27;20039;-68
2022/11/16 07:02:45;;;;;;;6.65;4.28;;;10.30;99.90;;;;;;5134191;28;20042;-67
2022/11/16 07:05:11;;;;;;;5.72;3.95;;;10.30;99.90;;;;;;5115943;28;20087;-68
2022/11/16 07:07:37;;;;;;;5.03;3.42;;;10.30;99.90;;;;;;5134471;28;20039;-69
2022/11/16 07:10:03;;;;;;;6.45;3.53;;;10.30;99.90;;;;;;5134443;28;20039;-68
2022/11/16 07:12:28;;;;;;;6.43;3.83;;;10.30;99.90;;;;;;5134413;28;20043;-68
2022/11/16 07:14:54;;;;;;;5.60;3.47;;;10.30;99.90;;;;;;5134051;28;20462;-70
2022/11/16 07:17:20;;;;;;;7.28;3.88;;;10.30;99.90;;;;;;5115862;28;20035;-70
2022/11/16 07:19:45;;;;;;;5.75;3.70;;;10.30;99.90;;;;;;5116018;28;20130;-71
2022/11/16 07:22:11;;;;;;;5.75;3.70;;;10.20;99.90;;;;;;5134196;28;20088;-70
2022/11/16 07:24:37;;;;;;;8.23;4.03;;;10.30;99.90;;;;;;5134185;28;20031;-70
2022/11/16 07:27:02;;;;;;;5.80;3.40;;;10.30;99.90;;;;;;5134304;28;20103;-69
2022/11/16 07:29:28;;;;;;;5.32;3.47;;;10.30;99.90;;;;;;5134035;28;20036;-70
2022/11/16 07:31:54;;;;;;;5.20;3.22;;;10.30;99.90;;;;;;5115672;28;20054;-69
2022/11/16 07:34:20;;;;;;;4.72;3.03;;;10.30;99.90;;;;;;5133952;28;20047;-69
2022/11/16 07:36:45;;;;;;;5.43;3.80;;;10.30;99.90;;;;;;5134199;28;20118;-70
2022/11/16 07:39:11;;;;;;;6.95;4.07;;;9.90;99.90;;;;;;5134090;28;20042;-69
2022/11/16 07:41:37;;;;;;;5.25;3.58;;;10.70;99.90;;;;;;5115239;28;20051;-69
2022/11/16 07:44:03;;;;;;;9.57;4.20;;;10.20;99.90;;;;;;5115674;28;20489;-69
2022/11/16 07:46:30;;;;;;;5.32;3.65;;;10.30;99.90;;;;;;5133765;28;20039;-70
2022/11/16 07:48:56;;;;;;;6.97;4.18;;;10.20;99.90;;;;;;5133957;28;20039;-70
2022/11/16 07:51:21;;;;;;;5.45;3.78;;;10.30;99.90;;;;;;5135840;27;20054;-70
2022/11/16 07:53:51;;;;;;;6.13;3.92;;;10.20;99.90;;;;;;5102398;27;20043;-71
2022/11/16 07:56:16;;;;;;;4.88;3.38;;;10.30;99.90;;;;;;5137449;27;20049;-70
2022/11/16 07:58:42;;;;;;;4.95;3.67;;;10.60;99.90;;;;;;5137553;27;20043;-70
2022/11/16 08:19:42;;;;;;;5.03;3.35;;;10.20;99.90;;;;;;5038186;28;20055;-79
2022/11/16 08:22:08;;;;;;;4.97;3.10;;;10.20;99.90;;;;;;5021755;28;20484;-80
2022/11/16 08:24:34;;;;;;;4.13;2.80;;;10.20;99.90;;;;;;5038501;28;20137;-83
2022/11/16 08:27:00;;;;;;;7.35;2.97;;;10.20;99.90;;;;;;5005560;28;20037;-80
2022/11/16 08:29:26;;;;;;;5.10;3.25;;;10.20;99.90;;;;;;5021894;28;20036;-82
2022/11/16 08:31:53;;;;;;;3.58;2.92;;;10.20;99.90;;;;;;5007986;28;20446;-81
2022/11/16 08:34:20;;;;;;;5.70;3.03;;;10.20;99.90;;;;;;5023762;28;20041;-82
2022/11/16 08:36:46;;;;;;;4.90;2.92;;;10.20;99.90;;;;;;5038788;28;20049;-82
2022/11/16 08:39:12;;;;;;;4.97;3.53;;;10.20;99.90;;;;;;5005943;28;20040;-81
2022/11/16 08:41:37;;;;;;;4.53;2.83;;;10.20;99.90;;;;;;5039399;28;20052;-82
2022/11/16 08:44:06;;;;;;;4.43;3.13;;;10.20;99.90;;;;;;5023861;28;20512;-81
2022/11/16 08:46:31;;;;;;;4.95;3.67;;;10.20;99.90;;;;;;5006551;28;20476;-82
2022/11/16 08:48:57;;;;;;;6.38;3.53;;;10.20;99.90;;;;;;5006066;28;20044;-82
2022/11/16 08:51:24;;;;;;;4.80;3.40;;;10.20;99.90;;;;;;5022818;28;20090;-82
2022/11/16 08:53:57;;;;;;;4.97;3.33;;;10.30;99.90;;;;;;5006447;28;20510;-82
2022/11/16 08:56:28;;;;;;;8.07;4.45;;;10.30;99.90;;;;;;5022246;28;20052;-82
2022/11/16 08:58:55;;;;;;;5.35;3.30;;;10.30;99.90;;;;;;5022325;28;20043;-82
2022/11/16 09:01:23;;;;;;;7.70;4.18;;;10.30;99.90;;;;;;5022303;28;20044;-82
2022/11/16 09:03:52;;;;;;;6.75;4.07;;;10.30;99.90;;;;;;5021126;28;20041;-82
2022/11/16 09:06:19;;;;;;;8.93;4.15;;;10.40;99.90;;;;;;5022527;28;20040;-82
2022/11/16 09:08:45;;;;;;;5.70;4.07;;;10.30;99.90;;;;;;5038631;28;20036;-82
2022/11/16 09:11:15;;;;;;;7.75;3.95;;;10.40;99.90;;;;;;5022119;28;20037;-82
2022/11/16 09:13:41;;;;;;;7.38;4.35;;;10.40;99.90;;;;;;5021658;28;20509;-82
2022/11/16 09:16:08;;;;;;;7.75;4.72;;;10.40;99.90;;;;;;5005215;28;20404;-81
2022/11/16 09:18:39;;;;;;;7.88;4.53;;;10.40;99.90;;;;;;5018563;28;20075;-82
2022/11/16 09:21:05;;;;;;;8.68;5.00;;;10.50;99.90;;;;;;5024539;28;20101;-82
2022/11/16 09:23:31;;;;;;;6.93;4.72;;;10.50;99.90;;;;;;5024205;28;20380;-82
2022/11/16 09:26:06;;;;;;;6.63;4.93;;;10.50;99.90;;;;;;5040703;28;20514;-82
2022/11/16 09:28:32;;;;;;;5.72;4.00;;;10.60;99.90;;;;;;5040657;28;20086;-82
2022/11/16 09:31:01;;;;;;;7.57;4.20;;;10.60;99.90;;;;;;5024215;28;20491;-83
2022/11/16 09:33:30;;;;;;;8.63;5.00;;;10.70;99.90;;;;;;5057114;28;20044;-82
2022/11/16 09:36:05;;;;;;;7.38;5.22;;;10.60;99.90;;;;;;5040357;28;20037;-81
2022/11/16 09:38:38;;;;;;;7.22;5.45;;;10.60;99.90;;;;;;5025161;28;20395;-80
2022/11/16 09:41:26;;;;;;;7.70;5.07;;;10.70;99.90;;;;;;5040044;28;20045;-81
2022/11/16 09:44:06;;;;;;;6.68;4.90;;;10.70;99.90;;;;;;5040524;28;20041;-80
2022/11/16 09:46:38;;;;;;;11.67;5.10;;;10.80;99.90;;;;;;5040241;28;20040;-81
2022/11/16 09:49:12;;;;;;;7.43;5.20;;;10.80;99.90;;;;;;5057391;28;20078;-80
2022/11/16 09:51:40;;;;;;;7.07;4.95;;;10.90;99.90;;;;;;5040267;28;20052;-81
2022/11/16 09:54:30;;;;;;;9.63;6.05;;;10.90;99.90;;;;;;5056808;28;20049;-81
2022/11/16 09:57:02;;;;;;;7.60;5.05;;;10.90;99.90;;;;;;5040314;28;20045;-79
2022/11/16 09:59:40;;;;;;;8.23;5.18;;;11.00;99.90;;;;;;5040353;28;20049;-80
2022/11/16 10:02:29;;;;;;;6.80;5.20;;;11.00;99.90;;;;;;5039987;28;20044;-81
2022/11/16 10:05:13;;;;;;;9.40;5.50;;;11.00;99.90;;;;;;5040521;28;20114;-81
2022/11/16 10:07:43;;;;;;;9.90;5.80;;;11.00;99.90;;;;;;5040021;28;20486;-81
2022/11/16 10:10:14;;;;;;;9.30;5.72;;;11.00;99.90;;;;;;5056753;28;20098;-81
2022/11/16 10:12:42;;;;;;;;;;;11.10;99.90;;;;;;5024523;28;20118;-82
2022/11/16 10:15:14;;;;;;;6.40;4.50;;;10.80;99.90;;;;;;5039495;28;19967;-82
2022/11/16 10:18:01;;;;;;;7.43;5.03;;;11.10;99.90;;;;;;5039993;28;20068;-82
2022/11/16 10:20:55;;;;;;;7.68;5.72;;;11.10;99.90;;;;;;5040027;28;20052;-82
2022/11/16 10:23:31;;;;;;;9.05;6.20;;;10.50;99.90;;;;;;5040102;28;20074;-81
2022/11/16 10:26:19;;;;;;;8.07;5.43;;;11.20;99.90;;;;;;5056843;28;20044;-81
2022/11/16 10:29:00;;;;;;;7.22;5.05;;;11.20;99.90;;;;;;5040639;28;20506;-81
2022/11/16 10:32:12;;;;;;;9.43;5.72;;;11.30;99.90;;;;;;5040911;28;20453;-82
2022/11/16 10:34:50;;;;;;;7.05;5.38;;;11.40;99.90;;;;;;5056997;28;20047;-82
2022/11/16 10:37:16;;;;;;;7.47;5.45;;;11.50;99.90;;;;;;5057072;28;20126;-82
2022/11/16 10:39:42;;;;;;;6.47;4.45;;;11.60;99.90;;;;;;5041684;28;20437;-83
2022/11/16 10:42:20;;;;;;;8.18;5.03;;;11.60;99.90;;;;;;5041650;28;20032;-83
2022/11/16 10:45:30;;;;;;;9.57;5.80;;;11.70;99.90;;;;;;5041216;28;20051;-84
2022/11/16 10:48:18;;;;;;;8.23;5.05;;;11.80;99.90;;;;;;5054634;28;20045;-82
2022/11/16 10:50:50;;;;;;;8.32;4.75;;;11.90;99.90;;;;;;5044399;28;20095;-83
2022/11/16 10:53:27;;;;;;;6.95;4.38;;;11.90;99.90;;;;;;5061524;28;20045;-84
2022/11/16 10:56:24;;;;;;;8.13;5.28;;;11.80;99.90;;;;;;5041942;28;20040;-84
2022/11/16 10:58:51;;;;;;;7.47;4.68;;;11.70;99.90;;;;;;5058600;28;20544;-83
2022/11/16 11:01:31;;;;;;;6.88;4.35;;;11.50;99.90;;;;;;5041947;28;20058;-83
2022/11/16 11:04:13;;;;;;;7.40;4.50;;;11.40;99.90;;;;;;5058616;28;20048;-84
2022/11/16 11:06:39;;;;;;;9.27;4.45;;;11.30;99.90;;;;;;5042506;28;20845;-83
2022/11/16 11:09:21;;;;;;;5.40;3.78;;;11.20;99.90;;;;;;5041515;28;20090;-81
2022/11/16 11:15:03;;;;;;;5.80;3.72;;;11.20;99.90;;;;;;5059188;28;20041;-83
2022/11/16 11:17:31;;;;;;;12.80;4.65;;;11.30;99.90;;;;;;5042375;28;20037;-83
2022/11/16 11:20:05;;;;;;;10.25;5.82;;;11.40;99.90;;;;;;5059335;28;20052;-85
2022/11/16 11:22:59;;;;;;;5.38;3.75;;;11.50;99.90;;;;;;5031786;28;20068;-84
2022/11/16 11:25:40;;;;;;;7.70;4.88;;;11.50;99.90;;;;;;5042697;28;20476;-82
2022/11/16 11:28:27;;;;;;;7.18;3.33;;;11.60;99.90;;;;;;5063088;28;20056;-86
2022/11/16 11:30:53;;;;;;;8.02;3.17;;;11.70;99.90;;;;;;5047599;28;20047;-83
2022/11/16 11:33:22;;;;;;;4.55;3.00;;;11.70;99.90;;;;;;5063910;28;20076;-83
2022/11/16 11:35:59;;;;;;;4.20;2.60;;;11.60;99.90;;;;;;5062602;28;20246;-83
2022/11/16 11:38:28;;;;;;;10.43;3.50;;;11.70;99.90;;;;;;5043873;28;20094;-83
2022/11/16 11:40:57;;;;;;;3.10;2.30;;;11.70;99.90;;;;;;5061207;28;20131;-84
2022/11/16 11:43:24;;;;;;;4.38;2.65;;;11.70;99.90;;;;;;5060318;28;20045;-84
2022/11/16 11:46:24;;;;;;;3.83;2.30;;;12.30;99.90;;;;;;5060896;28;20040;-84
2022/11/16 11:49:11;;;;;;;3.88;1.85;;;11.80;99.90;;;;;;5042718;28;20090;-84
2022/11/16 11:51:41;;;;;;;8.95;2.50;;;11.80;99.90;;;;;;5059933;28;20127;-84
2022/11/16 11:54:56;;;;;;;4.07;2.00;;;11.80;99.90;;;;;;5059481;28;20044;-83
2022/11/16 11:57:49;;;;;;;7.00;2.22;;;12.10;99.90;;;;;;5034329;28;20075;-84
2022/11/16 12:00:16;;;;;;;3.28;1.98;;;12.60;99.90;;;;;;5042945;28;20036;-83
2022/11/16 12:02:58;;;;;;;3.15;1.77;;;12.80;99.90;;;;;;5043043;28;20040;-82
2022/11/16 12:05:44;;;;;;;;;;;13.30;99.90;;;;;;5059907;28;20080;-83
2022/11/16 12:08:29;;;;;;;3.53;1.70;;;13.20;99.90;;;;;;5059515;28;19975;-82
2022/11/16 12:11:02;;;;;;;2.53;1.50;;;13.10;99.90;;;;;;5042778;28;20059;-83
2022/11/16 12:13:42;;;;;;;2.92;1.73;;;13.10;99.90;;;;;;5042653;28;20049;-83
2022/11/16 12:16:11;;;;;;;3.47;1.23;;;13.00;99.90;;;;;;5059571;28;20387;-83
2022/11/16 12:19:13;;;;;;;3.17;1.40;;;13.00;99.90;;;;;;5059054;28;20099;-81
2022/11/16 12:21:56;;;;;;;2.65;1.55;;;12.90;99.90;;;;;;4973332;28;20104;-82
2022/11/16 12:24:55;;;;;;;6.75;1.50;;;12.90;99.90;;;;;;5059300;28;20066;-81
2022/11/16 12:27:27;;;;;;;3.80;1.63;;;12.80;99.90;;;;;;5060317;28;20040;-81
2022/11/16 12:30:19;;;;;;;5.88;1.45;;;12.70;99.90;;;;;;5043610;28;20041;-81
2022/11/16 12:32:48;;;;;;;2.25;1.38;;;12.60;99.90;;;;;;5043486;28;20553;-81
2022/11/16 12:35:34;;;;;;;2.03;1.30;;;12.60;99.90;;;;;;5060305;28;20441;-81
2022/11/16 12:38:26;;;;;;;3.85;1.50;;;12.40;99.90;;;;;;5043216;28;20474;-81
2022/11/16 12:41:21;;;;;;;2.00;1.30;;;12.30;99.90;;;;;;5044503;28;20450;-81
2022/11/16 12:44:15;;;;;;;3.53;1.30;;;12.20;99.90;;;;;;5061305;28;20115;-82
2022/11/16 12:46:43;;;;;;;6.50;1.70;;;12.20;99.90;;;;;;5046111;28;20101;-81
2022/11/16 12:49:18;;;;;;;2.60;1.08;;;12.10;99.90;;;;;;5065762;28;20412;-81
2022/11/16 12:51:44;;;;;;;5.05;1.45;;;12.10;99.90;;;;;;5080392;28;20068;-81
2022/11/16 12:54:09;;;;;;;1.98;1.38;;;12.10;99.90;;;;;;5064993;28;20051;-81
2022/11/16 12:56:41;;;;;;;2.35;0.80;;;12.10;99.90;;;;;;5079413;28;20091;-80
2022/11/16 12:59:35;;;;;;;3.40;1.27;;;12.00;99.90;;;;;;5080962;28;20560;-81
2022/11/16 13:02:29;;;;;;;2.00;1.10;;;12.00;99.90;;;;;;5081795;28;20029;-80
2022/11/16 13:05:12;;;;;;;1.95;0.95;;;12.00;99.90;;;;;;5028439;28;20059;-81
2022/11/16 13:08:01;;;;;;;2.85;0.90;;;11.90;99.90;;;;;;5082535;28;20032;-80
2022/11/16 13:10:41;;;;;;;3.40;0.82;;;11.90;99.90;;;;;;5066207;28;20104;-78
2022/11/16 13:13:30;;;;;;;1.48;0.77;;;11.80;99.90;;;;;;5066210;28;20131;-80
2022/11/16 13:19:17;;;;;;;1.60;0.80;;;11.80;99.90;;;;;;4891628;26;20425;-70
2022/11/16 13:22:02;;;;;;;7.55;1.73;;;11.70;99.90;;;;;;5074948;28;20049;-68
2022/11/16 13:25:02;;;;;;;3.53;0.90;;;11.70;99.90;;;;;;5075047;28;20112;-70
2022/11/16 13:27:31;;;;;;;2.00;1.15;;;11.70;99.90;;;;;;5057178;28;20423;-67
2022/11/16 13:30:33;;;;;;;3.60;1.20;;;11.70;99.90;;;;;;5075085;28;20052;-72
2022/11/16 13:33:27;;;;;;;3.50;1.10;;;11.70;99.90;;;;;;5013585;28;20437;-72
2022/11/16 13:35:53;;;;;;;2.22;1.05;;;11.70;99.90;;;;;;5074853;28;20527;-72
2022/11/16 13:38:52;;;;;;;4.93;1.15;;;11.80;99.90;;;;;;5074950;28;20113;-72
2022/11/16 13:41:32;;;;;;;2.55;1.15;;;12.10;99.90;;;;;;5030708;28;20052;-72
2022/11/16 13:43:58;;;;;;;4.50;1.30;;;11.80;99.90;;;;;;5074829;28;20033;-71
2022/11/16 13:46:46;;;;;;;4.82;1.60;;;11.80;99.90;;;;;;5074632;28;20178;-71
2022/11/16 13:49:51;;;;;;;4.75;1.33;;;11.70;99.90;;;;;;5074392;28;20554;-70
2022/11/16 13:52:16;;;;;;;5.10;1.15;;;11.60;99.90;;;;;;5033578;28;20040;-72
2022/11/16 13:54:48;;;;;;;4.47;1.33;;;11.50;99.90;;;;;;5074496;28;20120;-71
2022/11/16 13:57:25;;;;;;;4.28;1.13;;;11.40;99.90;;;;;;5074120;28;20041;-71
2022/11/16 14:00:18;;;;;;;1.73;0.80;;;11.40;99.90;;;;;;5056674;28;20068;-71
2022/11/16 14:02:44;;;;;;;2.38;0.93;;;11.40;99.90;;;;;;5074194;28;20063;-70
2022/11/16 14:05:35;;;;;;;0.98;0.57;;;11.40;99.90;;;;;;5074293;28;20453;-70
2022/11/16 14:08:18;;;;;;;2.88;0.88;;;11.40;99.90;;;;;;5055907;28;20079;-70
2022/11/16 14:10:47;;;;;;;4.55;2.15;;;11.40;99.90;;;;;;5073790;28;20040;-70
2022/11/16 14:13:34;;;;;;;8.40;1.25;;;11.40;99.90;;;;;;5074187;28;20048;-71